Weather at Rochefort Soubise Airfield [CLOSED]

Public forecast

Using degrees Celsius for public forecast. Weather courtesy of forecast.io.

Closest aviation weather report (METAR) to Rochefort Soubise Airfield

Report is more than 6 hours old.

Closest report is La Rochelle-Île de Ré Airport, 17.1 nm (31.6 km) NNW. Retrieved 2022/09/17 19:00 UTC (19 days ago):

LFBH 171900Z AUTO 07007KT CAVOK 15/04 Q1021 NOSIG

Closest aviation forecast (TAF) to Rochefort Soubise Airfield

Forecast is more than 12 hours old.

Closest forecast is La Rochelle-Île de Ré Airport, 17.1 nm (31.6 km) NNW. Retrieved 2022/09/17 18:21 UTC (19 days ago):

TAF LFBH 171700Z 1718/1818 03012KT CAVOK